Date,TemperatureHighF,TemperatureAvgF,TemperatureLowF,DewpointHighF,DewpointAvgF,DewpointLowF,HumidityHigh,HumidityAvg,HumidityLow,PressureMaxIn,PressureMinIn,WindSpeedMaxMPH,WindSpeedAvgMPH,GustSpeedMaxMPH,PrecipitationSumIn
2013-2-1,73.5,56.8,42.3,48.2,40.6,34.7,90,58,30,30.38,30.21,3,1,4,0.00
2013-2-2,77.4,58.4,43.3,58.1,49.6,40.7,97,75,45,30.31,30.19,3,1,5,0.00
2013-2-3,73.2,61.2,51.0,55.2,46.4,39.4,85,60,39,30.36,30.05,3,1,5,0.00
2013-2-4,78.0,63.6,54.7,62.6,58.1,52.2,96,84,54,30.05,29.82,3,1,8,0.01
2013-2-5,82.7,65.3,51.5,56.0,48.2,38.5,98,61,22,30.01,29.89,2,0,4,0.00
2013-2-6,77.8,65.1,59.0,63.5,59.6,53.0,95,83,58,30.00,29.85,2,0,5,0.02
2013-2-7,80.7,66.6,59.2,65.2,58.9,44.6,98,78,45,30.07,29.88,4,1,8,0.00
2013-2-8,72.2,59.9,48.7,50.1,40.4,33.6,78,51,25,30.24,30.08,5,2,12,0.00
2013-2-9,68.2,59.6,50.4,67.8,56.8,39.0,99,91,57,30.11,29.82,2,1,3,0.03
2013-2-10,69.0,64.5,57.9,67.8,48.3,33.4,99,61,28,30.03,29.78,4,1,9,0.06
2013-2-11,60.2,55.8,51.6,51.1,47.2,40.7,96,74,54,30.08,29.97,3,2,8,0.01
2013-2-12,73.6,60.2,51.4,57.4,46.0,26.8,98,67,24,30.08,29.85,6,2,10,0.02
2013-2-13,66.6,53.2,41.1,37.9,34.6,31.1,76,52,27,30.19,30.05,5,2,11,0.00
2013-2-14,72.0,52.2,36.0,43.8,38.8,33.2,95,64,33,30.19,30.04,4,1,4,0.00
2013-2-15,68.2,52.7,40.7,47.4,39.6,26.5,94,64,33,30.42,30.11,5,2,7,0.00
2013-2-16,67.5,48.5,30.4,32.9,28.8,24.5,79,49,25,30.51,30.27,4,1,8,0.00
2013-2-17,72.2,54.9,36.1,54.4,40.9,30.5,81,61,38,30.27,30.02,3,1,9,0.00
2013-2-18,81.8,67.6,59.7,62.5,50.5,27.5,89,60,23,30.08,29.86,4,2,9,0.00
2013-2-19,69.8,58.4,46.5,36.3,33.8,30.2,62,41,25,30.27,30.08,3,2,7,0.00
2013-2-20,68.6,59.9,53.6,66.3,53.3,29.9,97,81,34,30.14,29.68,2,1,4,0.02
2013-2-21,79.4,68.5,54.9,67.8,45.3,20.9,96,53,13,29.87,29.60,7,2,12,0.00
2013-2-22,66.8,55.6,48.7,41.7,36.4,26.9,71,50,33,30.04,29.86,5,2,8,0.00
2013-2-23,77.4,56.6,42.2,43.1,37.4,31.0,67,51,26,30.09,29.89,4,1,6,0.00
2013-2-24,70.6,57.6,40.5,60.2,50.3,36.9,94,78,61,29.95,29.63,3,1,6,0.00
2013-2-25,63.7,57.5,47.2,61.5,37.0,17.0,98,52,18,29.91,29.60,13,6,24,0.00
2013-2-26,68.3,52.9,39.8,32.7,29.6,26.6,64,43,23,30.01,29.89,6,2,11,0.00
2013-2-27,65.8,55.7,45.8,36.9,30.7,24.8,62,40,24,30.27,29.91,7,2,12,0.00
2013-2-28,63.2,50.1,41.8,31.9,28.2,23.4,58,44,23,30.38,30.23,5,2,12,0.00